createdAt,value
2019-01-20T00:00:33.948Z,1011.38
2019-01-20T00:01:33.939Z,1011.39
2019-01-20T00:02:33.901Z,1011.39
2019-01-20T00:03:33.915Z,1011.44
2019-01-20T00:04:33.913Z,1011.40
2019-01-20T00:05:33.939Z,1011.37
2019-01-20T00:06:33.888Z,1011.34
2019-01-20T00:07:33.869Z,1011.32
2019-01-20T00:08:33.846Z,1011.35
2019-01-20T00:09:33.833Z,1011.37
2019-01-20T00:10:33.859Z,1011.36
2019-01-20T00:11:33.841Z,1011.39
2019-01-20T00:12:33.802Z,1011.35
2019-01-20T00:13:33.989Z,1011.32
2019-01-20T00:14:33.810Z,1011.38
2019-01-20T00:15:33.777Z,1011.32
2019-01-20T00:16:33.752Z,1011.34
2019-01-20T00:17:33.748Z,1011.28
2019-01-20T00:18:33.769Z,1011.28
2019-01-20T00:19:33.734Z,1011.32
2019-01-20T00:20:33.812Z,1011.26
2019-01-20T00:21:33.723Z,1011.31
2019-01-20T00:22:33.731Z,1011.30
2019-01-20T00:23:33.705Z,1011.28
2019-01-20T00:24:33.667Z,1011.35
2019-01-20T00:25:33.845Z,1011.29
2019-01-20T00:26:33.661Z,1011.30
2019-01-20T00:27:33.628Z,1011.34
2019-01-20T00:28:33.734Z,1011.34
2019-01-20T00:29:33.622Z,1011.33
2019-01-20T00:30:33.643Z,1011.37
2019-01-20T00:31:33.618Z,1011.30
2019-01-20T00:32:33.611Z,1011.31
2019-01-20T00:33:33.566Z,1011.32
2019-01-20T00:34:33.672Z,1011.39
2019-01-20T00:35:33.537Z,1011.33
2019-01-20T00:36:33.528Z,1011.42
2019-01-20T00:37:33.530Z,1011.33
2019-01-20T00:38:33.525Z,1011.28
2019-01-20T00:39:33.593Z,1011.34
2019-01-20T00:40:33.514Z,1011.29
2019-01-20T00:41:33.572Z,1011.28
2019-01-20T00:42:33.486Z,1011.25
2019-01-20T00:43:33.452Z,1011.32
2019-01-20T00:44:33.458Z,1011.24
2019-01-20T00:45:33.499Z,1011.28
2019-01-20T00:46:33.429Z,1011.23
2019-01-20T00:47:33.444Z,1011.32
2019-01-20T00:48:33.414Z,1011.24
2019-01-20T00:49:33.389Z,1011.23
2019-01-20T00:50:33.435Z,1011.22
2019-01-20T00:51:33.450Z,1011.22
2019-01-20T00:52:33.361Z,1011.24
2019-01-20T00:53:33.366Z,1011.24
2019-01-20T00:54:33.346Z,1011.24
2019-01-20T00:55:33.335Z,1011.24
2019-01-20T00:56:33.356Z,1011.20
2019-01-20T00:57:33.436Z,1011.20
2019-01-20T00:58:33.302Z,1011.19
2019-01-20T00:59:33.290Z,1011.22
2019-01-20T01:00:33.316Z,1011.24
2019-01-20T01:01:33.278Z,1011.23
2019-01-20T01:02:33.242Z,1011.26
2019-01-20T01:03:33.242Z,1011.31
2019-01-20T01:04:33.229Z,1011.25
2019-01-20T01:05:33.218Z,1011.26
2019-01-20T01:06:33.205Z,1011.23
2019-01-20T01:07:33.216Z,1011.24
2019-01-20T01:08:33.178Z,1011.28
2019-01-20T01:09:33.160Z,1011.21
2019-01-20T01:10:33.168Z,1011.27
2019-01-20T01:11:33.139Z,1011.28
2019-01-20T01:12:33.140Z,1011.28
2019-01-20T01:13:33.247Z,1011.26
2019-01-20T01:14:33.113Z,1011.21
2019-01-20T01:15:33.111Z,1011.25
2019-01-20T01:16:33.083Z,1011.23
2019-01-20T01:17:33.082Z,1011.26
2019-01-20T01:18:33.102Z,1011.28
2019-01-20T01:19:33.059Z,1011.22
2019-01-20T01:20:33.046Z,1011.27
2019-01-20T01:21:33.034Z,1011.24
2019-01-20T01:22:33.032Z,1011.28
2019-01-20T01:23:33.053Z,1011.32
2019-01-20T01:24:33.107Z,1011.32
2019-01-20T01:25:32.994Z,1011.24
2019-01-20T01:26:32.998Z,1011.33
2019-01-20T01:27:32.978Z,1011.27
2019-01-20T01:28:32.999Z,1011.35
2019-01-20T01:29:32.947Z,1011.38
2019-01-20T01:30:32.933Z,1011.44
2019-01-20T01:31:32.923Z,1011.32
2019-01-20T01:32:32.916Z,1011.37
2019-01-20T01:33:32.902Z,1011.36
2019-01-20T01:34:32.923Z,1011.36
2019-01-20T01:35:32.889Z,1011.38
2019-01-20T01:36:32.873Z,1011.42
2019-01-20T01:37:32.891Z,1011.41
2019-01-20T01:38:32.862Z,1011.36
2019-01-20T01:39:32.841Z,1011.36
2019-01-20T01:40:33.800Z,1011.37
2019-01-20T01:41:39.064Z,1011.36
2019-01-20T01:42:33.802Z,1011.40
2019-01-20T01:43:32.841Z,1011.35
2019-01-20T01:44:32.840Z,1011.38
2019-01-20T01:45:32.778Z,1011.39
2019-01-20T01:46:32.766Z,1011.38
2019-01-20T01:47:32.748Z,1011.37
2019-01-20T01:48:32.772Z,1011.42
2019-01-20T01:49:32.773Z,1011.36
2019-01-20T01:50:32.736Z,1011.50
2019-01-20T01:51:32.707Z,1011.46
2019-01-20T01:52:32.709Z,1011.41
2019-01-20T01:53:32.717Z,1011.42
2019-01-20T01:54:32.684Z,1011.43
2019-01-20T01:55:32.712Z,1011.42
2019-01-20T01:56:32.885Z,1011.37
2019-01-20T01:57:32.652Z,1011.39
2019-01-20T01:58:32.660Z,1011.39
2019-01-20T01:59:32.623Z,1011.37
2019-01-20T02:00:32.652Z,1011.36
2019-01-20T02:01:32.597Z,1011.41
2019-01-20T02:02:32.619Z,1011.39
2019-01-20T02:03:32.588Z,1011.42
2019-01-20T02:04:32.574Z,1011.33
2019-01-20T02:05:32.587Z,1011.32
2019-01-20T02:06:32.556Z,1011.38
2019-01-20T02:07:32.534Z,1011.33
2019-01-20T02:08:32.535Z,1011.38
2019-01-20T02:09:32.513Z,1011.32
2019-01-20T02:10:32.501Z,1011.32
2019-01-20T02:11:32.521Z,1011.39
2019-01-20T02:12:32.520Z,1011.35
2019-01-20T02:13:32.473Z,1011.40
2019-01-20T02:14:32.455Z,1011.33
2019-01-20T02:15:32.457Z,1011.42
2019-01-20T02:16:32.443Z,1011.32
2019-01-20T02:17:32.509Z,1011.35
2019-01-20T02:18:32.426Z,1011.42
2019-01-20T02:19:32.415Z,1011.35
2019-01-20T02:20:32.426Z,1011.41
2019-01-20T02:21:32.399Z,1011.40
2019-01-20T02:22:32.413Z,1011.37
2019-01-20T02:23:32.401Z,1011.40
2019-01-20T02:24:32.362Z,1011.41
2019-01-20T02:25:32.335Z,1011.42
2019-01-20T02:26:32.336Z,1011.44
2019-01-20T02:27:32.319Z,1011.42
2019-01-20T02:28:32.336Z,1011.44
2019-01-20T02:29:32.555Z,1011.47
2019-01-20T02:30:32.373Z,1011.48
2019-01-20T02:31:32.752Z,1011.50
2019-01-20T02:32:32.435Z,1011.48
2019-01-20T02:33:32.614Z,1011.56
2019-01-20T02:34:32.413Z,1011.51
2019-01-20T02:35:32.310Z,1011.44
2019-01-20T02:36:32.271Z,1011.51
2019-01-20T02:37:32.213Z,1011.53
2019-01-20T02:38:32.200Z,1011.48
2019-01-20T02:39:32.204Z,1011.43
2019-01-20T02:40:32.396Z,1011.44
2019-01-20T02:41:32.175Z,1011.47
2019-01-20T02:42:32.163Z,1011.46
2019-01-20T02:43:32.150Z,1011.47
2019-01-20T02:44:32.142Z,1011.43
2019-01-20T02:45:32.130Z,1011.50
2019-01-20T02:46:32.140Z,1011.45
2019-01-20T02:47:32.104Z,1011.43
2019-01-20T02:48:32.110Z,1011.47
2019-01-20T02:49:32.089Z,1011.41
2019-01-20T02:50:32.095Z,1011.45
2019-01-20T02:51:32.118Z,1011.42
2019-01-20T02:52:32.076Z,1011.41
2019-01-20T02:53:32.042Z,1011.43
2019-01-20T02:54:32.034Z,1011.38
2019-01-20T02:55:32.020Z,1011.41
2019-01-20T02:56:32.003Z,1011.37
2019-01-20T02:57:32.164Z,1011.39
2019-01-20T02:58:31.992Z,1011.39
2019-01-20T02:59:31.975Z,1011.42
2019-01-20T03:00:32.035Z,1011.43
2019-01-20T03:01:31.965Z,1011.42
2019-01-20T03:02:31.971Z,1011.43
2019-01-20T03:03:31.928Z,1011.45
2019-01-20T03:04:31.942Z,1011.50
2019-01-20T03:05:31.905Z,1011.53
2019-01-20T03:06:31.895Z,1011.46
2019-01-20T03:07:31.895Z,1011.49
2019-01-20T03:08:31.924Z,1011.47
2019-01-20T03:09:31.869Z,1011.48
2019-01-20T03:10:31.863Z,1011.50
2019-01-20T03:11:31.846Z,1011.46
2019-01-20T03:12:31.832Z,1011.47
2019-01-20T03:13:31.849Z,1011.51
2019-01-20T03:14:31.812Z,1011.42
2019-01-20T03:15:31.796Z,1011.43
2019-01-20T03:16:31.782Z,1011.41
2019-01-20T03:17:31.785Z,1011.45
2019-01-20T03:18:31.792Z,1011.44
2019-01-20T03:19:31.882Z,1011.49
2019-01-20T03:20:31.757Z,1011.43
2019-01-20T03:21:31.748Z,1011.41
2019-01-20T03:22:31.771Z,1011.43
2019-01-20T03:23:31.699Z,1011.43
2019-01-20T03:24:31.708Z,1011.48
2019-01-20T03:25:31.708Z,1011.45
2019-01-20T03:26:31.673Z,1011.46
2019-01-20T03:27:31.669Z,1011.43
2019-01-20T03:28:31.665Z,1011.52
2019-01-20T03:29:31.642Z,1011.52
2019-01-20T03:30:31.635Z,1011.59
2019-01-20T03:31:31.652Z,1011.50
2019-01-20T03:32:31.631Z,1011.55
2019-01-20T03:33:31.610Z,1011.54
2019-01-20T03:34:31.618Z,1011.50
2019-01-20T03:35:31.566Z,1011.52
2019-01-20T03:36:31.566Z,1011.44
2019-01-20T03:37:31.614Z,1011.47
2019-01-20T03:38:31.552Z,1011.52
2019-01-20T03:39:31.574Z,1011.50
2019-01-20T03:40:31.530Z,1011.47
2019-01-20T03:41:31.524Z,1011.53
2019-01-20T03:42:31.502Z,1011.54
2019-01-20T03:43:31.604Z,1011.52
2019-01-20T03:44:31.485Z,1011.51
2019-01-20T03:45:31.465Z,1011.45
2019-01-20T03:46:31.505Z,1011.42
2019-01-20T03:47:31.483Z,1011.54
2019-01-20T03:48:31.461Z,1011.52
2019-01-20T03:49:31.433Z,1011.50
2019-01-20T03:50:31.415Z,1011.51
2019-01-20T03:51:31.406Z,1011.52
2019-01-20T03:52:31.386Z,1011.47
2019-01-20T03:53:31.407Z,1011.49
2019-01-20T03:54:31.373Z,1011.46
2019-01-20T03:55:31.365Z,1011.47
2019-01-20T03:56:31.347Z,1011.47
2019-01-20T03:57:31.338Z,1011.46
2019-01-20T03:58:31.325Z,1011.44
2019-01-20T03:59:31.348Z,1011.46
2019-01-20T04:00:31.305Z,1011.53
2019-01-20T04:01:31.317Z,1011.46
2019-01-20T04:02:31.413Z,1011.49
2019-01-20T04:03:31.278Z,1011.48
2019-01-20T04:04:31.260Z,1011.55
2019-01-20T04:05:31.366Z,1011.50
2019-01-20T04:06:31.269Z,1011.53
2019-01-20T04:07:31.223Z,1011.54
2019-01-20T04:08:31.212Z,1011.53
2019-01-20T04:09:31.197Z,1011.50
2019-01-20T04:10:31.193Z,1011.52
2019-01-20T04:11:31.177Z,1011.57
2019-01-20T04:12:31.217Z,1011.50
2019-01-20T04:13:31.258Z,1011.54
2019-01-20T04:14:31.141Z,1011.60
2019-01-20T04:15:31.132Z,1011.56
2019-01-20T04:16:31.145Z,1011.52
2019-01-20T04:17:31.109Z,1011.54
2019-01-20T04:18:31.100Z,1011.52
2019-01-20T04:19:31.091Z,1011.52
2019-01-20T04:20:31.077Z,1011.49
2019-01-20T04:21:31.072Z,1011.45
2019-01-20T04:22:31.087Z,1011.47
2019-01-20T04:23:31.063Z,1011.46
2019-01-20T04:24:31.039Z,1011.52
2019-01-20T04:25:31.020Z,1011.48
2019-01-20T04:26:31.074Z,1011.46
2019-01-20T04:27:31.001Z,1011.41
2019-01-20T04:28:30.985Z,1011.37
2019-01-20T04:29:31.012Z,1011.45
2019-01-20T04:30:30.971Z,1011.54
2019-01-20T04:31:30.963Z,1011.41
2019-01-20T04:32:30.947Z,1011.40
2019-01-20T04:33:30.936Z,1011.41
2019-01-20T04:34:30.920Z,1011.32
2019-01-20T04:35:30.937Z,1011.34
2019-01-20T04:36:30.909Z,1011.41
2019-01-20T04:37:30.899Z,1011.33
2019-01-20T04:38:30.883Z,1011.41
2019-01-20T04:39:30.869Z,1011.33
2019-01-20T04:40:30.889Z,1011.44
2019-01-20T04:41:30.843Z,1011.41
2019-01-20T04:42:30.962Z,1011.39
2019-01-20T04:43:30.849Z,1011.44
2019-01-20T04:44:30.810Z,1011.42
2019-01-20T04:45:30.945Z,1011.35
2019-01-20T04:46:30.823Z,1011.42
2019-01-20T04:47:30.778Z,1011.42
2019-01-20T04:48:30.826Z,1011.38
2019-01-20T04:49:30.755Z,1011.37
2019-01-20T04:50:30.747Z,1011.31
2019-01-20T04:51:30.751Z,1011.33
2019-01-20T04:52:30.723Z,1011.38
2019-01-20T04:53:30.710Z,1011.31
2019-01-20T04:54:30.727Z,1011.33
2019-01-20T04:55:30.686Z,1011.34
2019-01-20T04:56:30.697Z,1011.39
2019-01-20T04:57:30.667Z,1011.37
2019-01-20T04:58:30.681Z,1011.38
2019-01-20T04:59:30.638Z,1011.43
2019-01-20T05:00:30.633Z,1011.37
2019-01-20T05:01:30.637Z,1011.46
2019-01-20T05:02:30.601Z,1011.42
2019-01-20T05:03:30.590Z,1011.51
2019-01-20T05:04:30.586Z,1011.44
2019-01-20T05:05:30.593Z,1011.43
2019-01-20T05:06:30.560Z,1011.48
2019-01-20T05:07:30.550Z,1011.47
2019-01-20T05:08:30.555Z,1011.44
2019-01-20T05:09:30.618Z,1011.51
2019-01-20T05:10:30.514Z,1011.45
2019-01-20T05:11:30.528Z,1011.47
2019-01-20T05:12:37.633Z,1011.51
2019-01-20T05:13:31.476Z,1011.52
2019-01-20T05:14:30.476Z,1011.47
2019-01-20T05:15:30.483Z,1011.45
2019-01-20T05:16:30.446Z,1011.48
2019-01-20T05:17:30.436Z,1011.55
2019-01-20T05:18:30.425Z,1011.53
2019-01-20T05:19:30.433Z,1011.50
2019-01-20T05:20:30.400Z,1011.53
2019-01-20T05:21:30.400Z,1011.50
2019-01-20T05:22:30.374Z,1011.58
2019-01-20T05:23:30.374Z,1011.52
2019-01-20T05:24:30.359Z,1011.54
2019-01-20T05:25:30.562Z,1011.57
2019-01-20T05:26:30.362Z,1011.61
2019-01-20T05:27:30.325Z,1011.62
2019-01-20T05:28:30.323Z,1011.76
2019-01-20T05:29:30.300Z,1011.68
2019-01-20T05:30:30.283Z,1011.69
2019-01-20T05:31:30.272Z,1011.61
2019-01-20T05:32:30.285Z,1011.64
2019-01-20T05:33:30.273Z,1011.70
2019-01-20T05:34:30.248Z,1011.61
2019-01-20T05:35:30.229Z,1011.70
2019-01-20T05:36:30.266Z,1011.71
2019-01-20T05:37:30.232Z,1011.65
2019-01-20T05:38:30.204Z,1011.71
2019-01-20T05:39:30.193Z,1011.71
2019-01-20T05:40:30.174Z,1011.68
2019-01-20T05:41:30.273Z,1011.78
2019-01-20T05:42:30.151Z,1011.71
2019-01-20T05:43:30.166Z,1011.76
2019-01-20T05:44:30.165Z,1011.74
2019-01-20T05:45:30.130Z,1011.77
2019-01-20T05:46:30.121Z,1011.76
2019-01-20T05:47:30.102Z,1011.76
2019-01-20T05:48:30.107Z,1011.81
2019-01-20T05:49:30.075Z,1011.84
2019-01-20T05:50:30.155Z,1011.81
2019-01-20T05:51:30.082Z,1011.81
2019-01-20T05:52:30.044Z,1011.72
2019-01-20T05:53:30.031Z,1011.75
2019-01-20T05:54:30.021Z,1011.71
2019-01-20T05:55:30.014Z,1011.76
2019-01-20T05:56:30.001Z,1011.81
2019-01-20T05:57:30.012Z,1011.75
2019-01-20T05:58:29.976Z,1011.85
2019-01-20T05:59:29.990Z,1011.82
2019-01-20T06:00:29.952Z,1011.82
2019-01-20T06:01:29.937Z,1011.78
2019-01-20T06:02:29.949Z,1011.80
2019-01-20T06:03:29.911Z,1011.86
2019-01-20T06:04:29.931Z,1011.91
2019-01-20T06:05:29.944Z,1011.91
2019-01-20T06:06:29.885Z,1011.88
2019-01-20T06:07:29.871Z,1011.90
2019-01-20T06:08:29.858Z,1011.95
2019-01-20T06:09:29.887Z,1011.96
2019-01-20T06:10:29.836Z,1011.90
2019-01-20T06:11:29.849Z,1011.91
2019-01-20T06:12:29.815Z,1011.95
2019-01-20T06:13:29.818Z,1011.84
2019-01-20T06:14:29.817Z,1011.91
2019-01-20T06:15:29.806Z,1011.94
2019-01-20T06:16:29.800Z,1011.93
2019-01-20T06:17:29.758Z,1011.93
2019-01-20T06:18:29.791Z,1011.95
2019-01-20T06:19:29.747Z,1011.95
2019-01-20T06:20:29.742Z,1011.94
2019-01-20T06:21:29.729Z,1011.91
2019-01-20T06:22:29.735Z,1011.93
2019-01-20T06:23:29.693Z,1011.91
2019-01-20T06:24:29.835Z,1011.89
2019-01-20T06:25:29.668Z,1011.87
2019-01-20T06:26:29.688Z,1011.86
2019-01-20T06:27:29.659Z,1011.85
2019-01-20T06:28:29.636Z,1011.90
2019-01-20T06:29:29.624Z,1011.94
2019-01-20T06:30:29.608Z,1011.94
2019-01-20T06:31:29.667Z,1011.93
2019-01-20T06:32:29.629Z,1011.95
2019-01-20T06:33:29.603Z,1012.08
2019-01-20T06:34:29.586Z,1012.06
2019-01-20T06:35:29.554Z,1012.00
2019-01-20T06:36:29.552Z,1012.00
2019-01-20T06:37:30.315Z,1011.97
2019-01-20T06:38:29.542Z,1012.05
2019-01-20T06:39:29.546Z,1012.04
2019-01-20T06:40:29.500Z,1012.07
2019-01-20T06:41:29.489Z,1012.00
2019-01-20T06:42:29.477Z,1012.05
2019-01-20T06:43:29.460Z,1012.05
2019-01-20T06:44:29.478Z,1012.06
2019-01-20T06:45:29.551Z,1012.10
2019-01-20T06:46:29.436Z,1012.11
2019-01-20T06:47:29.423Z,1012.11
2019-01-20T06:48:29.468Z,1012.10
2019-01-20T06:49:29.394Z,1012.14
2019-01-20T06:50:29.403Z,1012.14
2019-01-20T06:51:29.386Z,1012.16
2019-01-20T06:52:29.364Z,1012.18
2019-01-20T06:53:29.358Z,1012.16
2019-01-20T06:54:29.346Z,1012.22
2019-01-20T06:55:29.376Z,1012.27
2019-01-20T06:56:29.315Z,1012.31
2019-01-20T06:57:29.324Z,1012.24
2019-01-20T06:58:29.295Z,1012.27
2019-01-20T06:59:29.295Z,1012.30
2019-01-20T07:00:29.272Z,1012.27
2019-01-20T07:01:29.283Z,1012.28
2019-01-20T07:02:29.251Z,1012.35
2019-01-20T07:03:29.241Z,1012.35
2019-01-20T07:04:29.278Z,1012.34
2019-01-20T07:05:29.218Z,1012.28
2019-01-20T07:06:29.232Z,1012.30
2019-01-20T07:07:29.266Z,1012.32
2019-01-20T07:08:29.186Z,1012.38
2019-01-20T07:09:29.170Z,1012.37
2019-01-20T07:10:29.160Z,1012.33
2019-01-20T07:11:29.171Z,1012.31
2019-01-20T07:12:29.141Z,1012.43
2019-01-20T07:13:29.135Z,1012.41
2019-01-20T07:14:29.135Z,1012.38
2019-01-20T07:15:29.101Z,1012.37
2019-01-20T07:16:29.089Z,1012.39
2019-01-20T07:17:29.108Z,1012.41
2019-01-20T07:18:29.071Z,1012.46
2019-01-20T07:19:29.054Z,1012.43
2019-01-20T07:20:29.046Z,1012.46
2019-01-20T07:21:29.075Z,1012.49
2019-01-20T07:22:29.020Z,1012.44
2019-01-20T07:23:29.051Z,1012.43
2019-01-20T07:24:29.001Z,1012.51
2019-01-20T07:25:29.031Z,1012.50
2019-01-20T07:26:29.004Z,1012.51
2019-01-20T07:27:28.968Z,1012.53
2019-01-20T07:28:28.971Z,1012.53
2019-01-20T07:29:28.953Z,1012.56
2019-01-20T07:30:28.928Z,1012.54
2019-01-20T07:31:28.917Z,1012.50
2019-01-20T07:32:28.934Z,1012.57
2019-01-20T07:33:28.894Z,1012.58
2019-01-20T07:34:28.887Z,1012.55
2019-01-20T07:35:28.899Z,1012.51
2019-01-20T07:36:28.865Z,1012.56
2019-01-20T07:37:28.848Z,1012.56
2019-01-20T07:38:28.841Z,1012.59
2019-01-20T07:39:28.827Z,1012.54
2019-01-20T07:40:28.819Z,1012.57
2019-01-20T07:41:28.826Z,1012.58
2019-01-20T07:42:28.794Z,1012.60
2019-01-20T07:43:28.808Z,1012.61
2019-01-20T07:44:28.933Z,1012.64
2019-01-20T07:45:28.762Z,1012.70
2019-01-20T07:46:28.765Z,1012.67
2019-01-20T07:47:28.842Z,1012.73
2019-01-20T07:48:28.761Z,1012.68
2019-01-20T07:49:28.711Z,1012.70
2019-01-20T07:50:28.704Z,1012.71
2019-01-20T07:51:28.696Z,1012.65
2019-01-20T07:52:28.684Z,1012.69
2019-01-20T07:53:28.677Z,1012.71
2019-01-20T07:54:28.685Z,1012.78
2019-01-20T07:55:28.649Z,1012.85
2019-01-20T07:56:28.635Z,1012.82
2019-01-20T07:57:28.625Z,1012.80
2019-01-20T07:58:28.617Z,1012.85
2019-01-20T07:59:28.607Z,1012.88
2019-01-20T08:00:28.634Z,1012.88
2019-01-20T08:01:28.581Z,1012.93
2019-01-20T08:02:28.570Z,1012.88
2019-01-20T08:03:28.564Z,1012.87
2019-01-20T08:04:28.563Z,1012.98
2019-01-20T08:05:28.564Z,1012.89
2019-01-20T08:06:28.527Z,1012.96
2019-01-20T08:07:28.513Z,1012.95
2019-01-20T08:08:28.505Z,1012.95
2019-01-20T08:09:29.321Z,1012.96
2019-01-20T08:10:28.478Z,1012.98
2019-01-20T08:11:28.499Z,1012.91
2019-01-20T08:12:28.454Z,1012.97
2019-01-20T08:13:28.451Z,1013.00
2019-01-20T08:14:28.463Z,1012.98
2019-01-20T08:15:28.421Z,1013.01
2019-01-20T08:16:28.443Z,1012.98
2019-01-20T08:17:28.501Z,1013.06
2019-01-20T08:18:28.386Z,1013.02
2019-01-20T08:19:28.374Z,1013.07
2019-01-20T08:20:28.380Z,1013.07
2019-01-20T08:21:28.375Z,1013.10
2019-01-20T08:22:28.374Z,1013.10
2019-01-20T08:23:28.368Z,1013.05
2019-01-20T08:24:28.324Z,1013.12
2019-01-20T08:25:28.315Z,1013.09
2019-01-20T08:26:28.303Z,1013.10
2019-01-20T08:27:28.287Z,1013.13
2019-01-20T08:28:28.308Z,1013.14
2019-01-20T08:29:28.266Z,1013.13
2019-01-20T08:30:28.319Z,1013.16
2019-01-20T08:31:28.868Z,1013.13
2019-01-20T08:32:28.247Z,1013.18
2019-01-20T08:33:28.339Z,1013.18
2019-01-20T08:34:28.210Z,1013.26
2019-01-20T08:35:28.205Z,1013.19
2019-01-20T08:36:28.194Z,1013.24
2019-01-20T08:37:28.993Z,1013.30
2019-01-20T08:38:28.172Z,1013.33
2019-01-20T08:39:28.187Z,1013.29
2019-01-20T08:40:28.146Z,1013.31
2019-01-20T08:41:28.142Z,1013.33
2019-01-20T08:42:28.126Z,1013.37
2019-01-20T08:43:31.963Z,1013.33
2019-01-20T08:44:28.127Z,1013.36
2019-01-20T08:45:28.093Z,1013.39
2019-01-20T08:46:28.155Z,1013.34
2019-01-20T08:47:28.080Z,1013.38
2019-01-20T08:48:28.065Z,1013.37
2019-01-20T08:49:28.080Z,1013.41
2019-01-20T08:50:28.040Z,1013.40
2019-01-20T08:51:28.037Z,1013.35
2019-01-20T08:52:28.022Z,1013.45
2019-01-20T08:53:28.480Z,1013.45
2019-01-20T08:54:28.018Z,1013.48
2019-01-20T08:55:28.011Z,1013.51
2019-01-20T08:56:27.981Z,1013.39
2019-01-20T08:57:27.960Z,1013.40
2019-01-20T08:58:27.963Z,1013.50
2019-01-20T08:59:27.954Z,1013.44
2019-01-20T09:00:27.974Z,1013.49
2019-01-20T09:01:27.916Z,1013.44
2019-01-20T09:02:27.918Z,1013.41
2019-01-20T09:03:27.900Z,1013.48
2019-01-20T09:04:27.886Z,1013.46
2019-01-20T09:05:27.877Z,1013.48
2019-01-20T09:06:27.911Z,1013.44
2019-01-20T09:07:27.972Z,1013.46
2019-01-20T09:08:27.859Z,1013.45
2019-01-20T09:09:27.843Z,1013.45
2019-01-20T09:10:27.842Z,1013.49
2019-01-20T09:11:27.847Z,1013.47
2019-01-20T09:12:27.809Z,1013.50
2019-01-20T09:13:27.822Z,1013.52
2019-01-20T09:14:27.800Z,1013.57
2019-01-20T09:15:27.776Z,1013.57
2019-01-20T09:16:27.790Z,1013.64
2019-01-20T09:17:27.747Z,1013.65
2019-01-20T09:18:28.829Z,1013.66
2019-01-20T09:19:27.730Z,1013.72
2019-01-20T09:20:27.719Z,1013.67
2019-01-20T09:21:27.738Z,1013.69
2019-01-20T09:22:27.704Z,1013.66
2019-01-20T09:23:27.722Z,1013.78
2019-01-20T09:24:27.673Z,1013.76
2019-01-20T09:25:27.689Z,1013.77
2019-01-20T09:26:27.794Z,1013.73
2019-01-20T09:27:27.636Z,1013.77
2019-01-20T09:28:27.626Z,1013.75
2019-01-20T09:29:27.657Z,1013.78
2019-01-20T09:30:27.608Z,1013.82
2019-01-20T09:31:27.602Z,1013.80
2019-01-20T09:32:27.585Z,1013.90
2019-01-20T09:33:27.572Z,1013.87
2019-01-20T09:34:27.599Z,1013.81
2019-01-20T09:35:27.557Z,1013.84
2019-01-20T09:36:27.544Z,1013.86
2019-01-20T09:37:27.540Z,1013.86
2019-01-20T09:38:27.519Z,1013.83
2019-01-20T09:39:27.531Z,1013.82
2019-01-20T09:40:27.520Z,1013.78
2019-01-20T09:41:27.481Z,1013.85
2019-01-20T09:42:27.487Z,1013.87
2019-01-20T09:43:27.480Z,1013.85
2019-01-20T09:44:27.454Z,1013.87
2019-01-20T09:45:27.444Z,1013.93
2019-01-20T09:46:27.456Z,1013.85
2019-01-20T09:47:27.455Z,1013.94
2019-01-20T09:48:27.413Z,1013.93
2019-01-20T09:49:27.414Z,1013.91
2019-01-20T09:50:27.490Z,1013.90
2019-01-20T09:51:27.389Z,1013.90
2019-01-20T09:52:27.364Z,1013.98
2019-01-20T09:53:27.392Z,1013.93
2019-01-20T09:54:27.349Z,1013.89
2019-01-20T09:55:27.369Z,1013.98
2019-01-20T09:56:27.361Z,1013.92
2019-01-20T09:57:27.317Z,1013.98
2019-01-20T09:58:27.305Z,1013.94
2019-01-20T09:59:27.297Z,1013.99
2019-01-20T10:00:27.278Z,1013.96
2019-01-20T10:01:27.271Z,1014.00
2019-01-20T10:02:27.297Z,1013.97
2019-01-20T10:03:27.315Z,1014.00
2019-01-20T10:04:27.244Z,1014.00
2019-01-20T10:05:27.239Z,1014.01
2019-01-20T10:06:27.365Z,1014.03
2019-01-20T10:07:27.206Z,1014.02
2019-01-20T10:08:27.263Z,1014.04
2019-01-20T10:09:27.187Z,1014.06
2019-01-20T10:10:28.247Z,1014.13
2019-01-20T10:11:27.165Z,1014.14
2019-01-20T10:12:27.146Z,1014.12
2019-01-20T10:13:27.146Z,1014.10
2019-01-20T10:14:27.168Z,1014.11
2019-01-20T10:15:27.123Z,1014.13
2019-01-20T10:16:27.112Z,1014.08
2019-01-20T10:17:27.106Z,1014.09
2019-01-20T10:18:27.131Z,1014.17
2019-01-20T10:19:27.074Z,1014.18
2019-01-20T10:20:27.072Z,1014.14
2019-01-20T10:21:27.064Z,1014.09
2019-01-20T10:22:28.297Z,1014.10
2019-01-20T10:23:27.030Z,1014.10
2019-01-20T10:24:27.065Z,1014.12
2019-01-20T10:25:27.013Z,1014.16
2019-01-20T10:26:27.003Z,1014.14
2019-01-20T10:27:26.989Z,1014.18
2019-01-20T10:28:27.020Z,1014.18
2019-01-20T10:29:26.970Z,1014.16
2019-01-20T10:30:27.004Z,1014.18
2019-01-20T10:31:26.964Z,1014.18
2019-01-20T10:32:26.934Z,1014.14
2019-01-20T10:33:26.921Z,1014.17
2019-01-20T10:34:26.909Z,1014.17
2019-01-20T10:35:26.966Z,1014.23
2019-01-20T10:36:26.920Z,1014.18
2019-01-20T10:37:26.883Z,1014.18
2019-01-20T10:38:26.870Z,1014.22
2019-01-20T10:39:26.859Z,1014.19
2019-01-20T10:40:26.850Z,1014.22
2019-01-20T10:41:26.837Z,1014.22
2019-01-20T10:42:26.849Z,1014.12
2019-01-20T10:43:26.892Z,1014.16
2019-01-20T10:44:26.807Z,1014.17
2019-01-20T10:45:26.792Z,1014.19
2019-01-20T10:46:26.815Z,1014.18
2019-01-20T10:47:26.802Z,1014.17
2019-01-20T10:48:26.807Z,1014.14
2019-01-20T10:49:26.751Z,1014.14
2019-01-20T10:50:26.744Z,1014.20
2019-01-20T10:51:26.728Z,1014.15
2019-01-20T10:52:26.732Z,1014.21
2019-01-20T10:53:26.712Z,1014.19
2019-01-20T10:54:26.728Z,1014.19
2019-01-20T10:55:26.690Z,1014.20
2019-01-20T10:56:26.681Z,1014.24
2019-01-20T10:57:26.666Z,1014.17
2019-01-20T10:58:26.712Z,1014.20
2019-01-20T10:59:26.800Z,1014.21
2019-01-20T11:00:26.626Z,1014.22
2019-01-20T11:01:26.617Z,1014.21
2019-01-20T11:02:26.622Z,1014.19
2019-01-20T11:03:26.606Z,1014.24
2019-01-20T11:04:26.622Z,1014.21
2019-01-20T11:05:30.827Z,1014.21
2019-01-20T11:06:27.568Z,1014.22
2019-01-20T11:07:26.555Z,1014.19
2019-01-20T11:08:26.562Z,1014.19
2019-01-20T11:09:26.532Z,1014.21
2019-01-20T11:10:26.527Z,1014.24
2019-01-20T11:11:26.526Z,1014.22
2019-01-20T11:12:26.508Z,1014.19
2019-01-20T11:13:26.506Z,1014.18
2019-01-20T11:14:26.481Z,1014.20
2019-01-20T11:15:26.476Z,1014.17
2019-01-20T11:16:26.504Z,1014.26
2019-01-20T11:17:26.459Z,1014.20
2019-01-20T11:18:26.437Z,1014.26
2019-01-20T11:19:26.424Z,1014.31
2019-01-20T11:20:26.429Z,1014.30
2019-01-20T11:21:26.404Z,1014.29
2019-01-20T11:22:26.415Z,1014.35
2019-01-20T11:23:26.401Z,1014.30
2019-01-20T11:24:26.389Z,1014.25
2019-01-20T11:25:26.356Z,1014.29
2019-01-20T11:26:26.353Z,1014.29
2019-01-20T11:27:26.357Z,1014.34
2019-01-20T11:28:26.336Z,1014.30
2019-01-20T11:29:26.497Z,1014.27
2019-01-20T11:30:26.306Z,1014.30
2019-01-20T11:31:26.292Z,1014.28
2019-01-20T11:32:26.297Z,1014.28
2019-01-20T11:33:26.290Z,1014.26
2019-01-20T11:34:26.259Z,1014.25
2019-01-20T11:35:26.249Z,1014.31
2019-01-20T11:36:26.238Z,1014.24
2019-01-20T11:37:26.223Z,1014.27
2019-01-20T11:38:26.215Z,1014.24
2019-01-20T11:39:26.230Z,1014.19
2019-01-20T11:40:26.200Z,1014.22
2019-01-20T11:41:26.182Z,1014.20
2019-01-20T11:42:26.179Z,1014.23
2019-01-20T11:43:26.195Z,1014.17
2019-01-20T11:44:26.173Z,1014.23
2019-01-20T11:45:26.182Z,1014.27
2019-01-20T11:46:26.127Z,1014.21
2019-01-20T11:47:26.112Z,1014.24
2019-01-20T11:48:26.102Z,1014.26
2019-01-20T11:49:26.094Z,1014.17
2019-01-20T11:50:26.121Z,1014.22
2019-01-20T11:51:26.086Z,1014.25
2019-01-20T11:52:26.062Z,1014.22
2019-01-20T11:53:26.050Z,1014.21
2019-01-20T11:54:26.041Z,1014.19
2019-01-20T11:55:26.035Z,1014.20
2019-01-20T11:56:26.015Z,1014.19
2019-01-20T11:57:26.029Z,1014.17
2019-01-20T11:58:26.000Z,1014.11
2019-01-20T11:59:26.031Z,1014.19
2019-01-20T12:00:25.975Z,1014.14
2019-01-20T12:01:25.988Z,1014.16
2019-01-20T12:02:25.974Z,1014.15
2019-01-20T12:03:25.969Z,1014.10
2019-01-20T12:04:25.999Z,1014.21
2019-01-20T12:05:25.920Z,1014.18